createdAt,value
2019-03-09T00:00:31.956Z,949.09
2019-03-09T00:01:32.042Z,949.06
2019-03-09T00:02:52.928Z,949.05
2019-03-09T00:03:31.906Z,949.07
2019-03-09T00:04:31.897Z,949.07
2019-03-09T00:05:31.932Z,949.11
2019-03-09T00:06:31.880Z,949.13
2019-03-09T00:07:31.870Z,949.15
2019-03-09T00:08:52.870Z,949.17
2019-03-09T00:09:31.857Z,949.16
2019-03-09T00:10:31.849Z,949.19
2019-03-09T00:11:31.891Z,949.13
2019-03-09T00:12:31.836Z,949.18
2019-03-09T00:13:31.820Z,949.20
2019-03-09T00:14:52.826Z,949.21
2019-03-09T00:15:31.813Z,949.20
2019-03-09T00:16:31.866Z,949.23
2019-03-09T00:17:31.785Z,949.25
2019-03-09T00:18:31.777Z,949.24
2019-03-09T00:19:31.765Z,949.32
2019-03-09T00:20:52.763Z,949.34
2019-03-09T00:21:31.746Z,949.30
2019-03-09T00:22:31.739Z,949.32
2019-03-09T00:23:31.733Z,949.30
2019-03-09T00:24:31.756Z,949.34
2019-03-09T00:25:31.721Z,949.33
2019-03-09T00:26:52.702Z,949.31
2019-03-09T00:27:31.807Z,949.33
2019-03-09T00:28:31.685Z,949.31
2019-03-09T00:29:31.677Z,949.26
2019-03-09T00:30:31.673Z,949.22
2019-03-09T00:31:31.681Z,949.23
2019-03-09T00:32:52.666Z,949.22
2019-03-09T00:33:31.654Z,949.22
2019-03-09T00:34:31.630Z,949.18
2019-03-09T00:35:31.626Z,949.15
2019-03-09T00:36:32.609Z,949.20
2019-03-09T00:37:31.611Z,949.19
2019-03-09T00:38:52.605Z,949.17
2019-03-09T00:39:31.582Z,949.25
2019-03-09T00:40:31.592Z,949.25
2019-03-09T00:41:31.576Z,949.24
2019-03-09T00:42:31.565Z,949.20
2019-03-09T00:43:31.561Z,949.17
2019-03-09T00:44:52.562Z,949.20
2019-03-09T00:45:31.540Z,949.20
2019-03-09T00:46:31.541Z,949.24
2019-03-09T00:47:31.526Z,949.23
2019-03-09T00:48:31.511Z,949.22
2019-03-09T00:49:31.506Z,949.19
2019-03-09T00:50:52.516Z,949.16
2019-03-09T00:51:31.483Z,949.16
2019-03-09T00:52:31.476Z,949.11
2019-03-09T00:53:31.468Z,949.06
2019-03-09T00:54:31.460Z,949.06
2019-03-09T00:55:31.451Z,949.01
2019-03-09T00:56:52.447Z,949.06
2019-03-09T00:57:31.440Z,949.03
2019-03-09T00:58:31.425Z,949.02
2019-03-09T00:59:31.415Z,948.98
2019-03-09T01:00:31.411Z,948.97
2019-03-09T01:01:31.400Z,948.94
2019-03-09T01:02:52.455Z,948.93
2019-03-09T01:03:31.381Z,948.94
2019-03-09T01:04:31.379Z,948.98
2019-03-09T01:05:31.366Z,948.99
2019-03-09T01:06:31.352Z,949.07
2019-03-09T01:07:31.340Z,949.02
2019-03-09T01:08:52.343Z,949.02
2019-03-09T01:09:31.332Z,949.03
2019-03-09T01:10:31.319Z,948.95
2019-03-09T01:11:31.328Z,949.00
2019-03-09T01:12:31.303Z,948.98
2019-03-09T01:13:31.295Z,948.99
2019-03-09T01:14:52.296Z,948.98
2019-03-09T01:15:31.275Z,949.00
2019-03-09T01:16:31.278Z,948.98
2019-03-09T01:17:31.260Z,948.97
2019-03-09T01:18:31.255Z,948.96
2019-03-09T01:19:31.247Z,948.93
2019-03-09T01:20:52.245Z,948.96
2019-03-09T01:21:31.225Z,948.94
2019-03-09T01:22:31.218Z,948.94
2019-03-09T01:23:31.207Z,948.92
2019-03-09T01:24:31.899Z,948.92
2019-03-09T01:25:31.795Z,948.88
2019-03-09T01:26:52.184Z,948.88
2019-03-09T01:27:31.175Z,948.87
2019-03-09T01:28:31.159Z,948.80
2019-03-09T01:29:31.159Z,948.83
2019-03-09T01:30:31.146Z,948.86
2019-03-09T01:31:31.140Z,948.86
2019-03-09T01:32:52.135Z,948.86
2019-03-09T01:33:31.118Z,948.86
2019-03-09T01:34:31.113Z,948.87
2019-03-09T01:35:31.098Z,948.84
2019-03-09T01:36:31.103Z,948.81
2019-03-09T01:37:31.081Z,948.81
2019-03-09T01:38:52.075Z,948.72
2019-03-09T01:39:31.069Z,948.71
2019-03-09T01:40:31.081Z,948.68
2019-03-09T01:41:31.048Z,948.67
2019-03-09T01:42:31.042Z,948.64
2019-03-09T01:43:31.034Z,948.62
2019-03-09T01:44:52.029Z,948.62
2019-03-09T01:45:31.002Z,948.62
2019-03-09T01:46:31.011Z,948.63
2019-03-09T01:47:30.994Z,948.63
2019-03-09T01:48:30.991Z,948.61
2019-03-09T01:49:30.979Z,948.61
2019-03-09T01:50:51.981Z,948.59
2019-03-09T01:51:30.964Z,948.58
2019-03-09T01:52:30.965Z,948.60
2019-03-09T01:53:36.699Z,948.49
2019-03-09T01:54:30.934Z,948.32
2019-03-09T01:55:30.925Z,948.43
2019-03-09T01:56:51.930Z,948.39
2019-03-09T01:57:30.916Z,948.41
2019-03-09T01:58:30.887Z,948.32
2019-03-09T01:59:30.892Z,948.35
2019-03-09T02:00:30.883Z,948.36
2019-03-09T02:01:30.873Z,948.38
2019-03-09T02:02:51.878Z,948.32
2019-03-09T02:03:30.855Z,948.23
2019-03-09T02:04:30.850Z,948.25
2019-03-09T02:05:30.837Z,948.27
2019-03-09T02:06:30.833Z,948.26
2019-03-09T02:07:30.821Z,948.27
2019-03-09T02:08:51.822Z,948.29
2019-03-09T02:09:30.801Z,948.29
2019-03-09T02:10:30.795Z,948.26
2019-03-09T02:11:30.786Z,948.28
2019-03-09T02:12:30.783Z,948.26
2019-03-09T02:13:30.767Z,948.27
2019-03-09T02:14:51.767Z,948.23
2019-03-09T02:15:30.756Z,948.24
2019-03-09T02:16:31.037Z,948.20
2019-03-09T02:17:32.468Z,948.20
2019-03-09T02:18:30.722Z,948.18
2019-03-09T02:19:30.715Z,948.15
2019-03-09T02:20:51.715Z,948.16
2019-03-09T02:21:30.703Z,948.22
2019-03-09T02:22:30.693Z,948.19
2019-03-09T02:23:30.680Z,948.21
2019-03-09T02:24:30.671Z,948.23
2019-03-09T02:25:30.661Z,948.21
2019-03-09T02:26:51.701Z,948.02
2019-03-09T02:27:30.640Z,948.17
2019-03-09T02:28:30.635Z,948.17
2019-03-09T02:29:30.626Z,948.09
2019-03-09T02:30:30.623Z,948.15
2019-03-09T02:31:30.618Z,948.06
2019-03-09T02:32:51.652Z,948.02
2019-03-09T02:33:30.588Z,948.11
2019-03-09T02:34:30.599Z,948.16
2019-03-09T02:35:30.575Z,948.12
2019-03-09T02:36:30.569Z,948.07
2019-03-09T02:37:30.561Z,948.16
2019-03-09T02:38:51.572Z,948.10
2019-03-09T02:39:30.552Z,948.15
2019-03-09T02:40:30.535Z,948.21
2019-03-09T02:41:30.522Z,948.18
2019-03-09T02:42:30.511Z,948.18
2019-03-09T02:43:30.505Z,948.15
2019-03-09T02:44:51.500Z,948.16
2019-03-09T02:45:30.490Z,948.11
2019-03-09T02:46:30.479Z,948.15
2019-03-09T02:47:30.464Z,948.12
2019-03-09T02:48:30.458Z,948.11
2019-03-09T02:49:30.451Z,948.07
2019-03-09T02:50:51.445Z,948.10
2019-03-09T02:51:30.446Z,948.11
2019-03-09T02:52:30.428Z,948.03
2019-03-09T02:53:30.414Z,948.09
2019-03-09T02:54:30.423Z,948.11
2019-03-09T02:55:30.393Z,948.04
2019-03-09T02:56:51.397Z,948.04
2019-03-09T02:57:30.376Z,948.08
2019-03-09T02:58:30.373Z,948.09
2019-03-09T02:59:30.369Z,948.06
2019-03-09T03:00:30.350Z,948.04
2019-03-09T03:01:30.337Z,947.99
2019-03-09T03:02:51.344Z,948.04
2019-03-09T03:03:30.335Z,948.00
2019-03-09T03:04:30.325Z,948.03
2019-03-09T03:05:30.305Z,948.08
2019-03-09T03:06:30.303Z,948.05
2019-03-09T03:07:31.243Z,948.01
2019-03-09T03:08:51.283Z,947.91
2019-03-09T03:09:30.272Z,947.91
2019-03-09T03:10:30.271Z,947.91
2019-03-09T03:11:30.252Z,947.93
2019-03-09T03:12:30.251Z,947.92
2019-03-09T03:13:30.238Z,947.87
2019-03-09T03:14:51.236Z,947.85
2019-03-09T03:15:30.221Z,947.87
2019-03-09T03:16:30.214Z,947.83
2019-03-09T03:17:30.199Z,947.89
2019-03-09T03:18:30.194Z,947.87
2019-03-09T03:19:30.182Z,947.93
2019-03-09T03:20:51.185Z,947.90
2019-03-09T03:21:30.167Z,947.93
2019-03-09T03:22:30.170Z,947.91
2019-03-09T03:23:30.152Z,947.90
2019-03-09T03:24:30.144Z,947.93
2019-03-09T03:25:30.130Z,947.89
2019-03-09T03:26:51.128Z,947.88
2019-03-09T03:27:30.114Z,947.80
2019-03-09T03:28:30.105Z,947.82
2019-03-09T03:29:30.101Z,947.87
2019-03-09T03:30:30.092Z,947.84
2019-03-09T03:31:30.081Z,947.85
2019-03-09T03:32:51.118Z,947.88
2019-03-09T03:33:30.061Z,947.87
2019-03-09T03:34:30.057Z,947.84
2019-03-09T03:35:30.048Z,947.88
2019-03-09T03:36:30.035Z,947.82
2019-03-09T03:37:30.031Z,947.85
2019-03-09T03:38:51.023Z,947.82
2019-03-09T03:39:30.053Z,947.74
2019-03-09T03:40:30.012Z,947.75
2019-03-09T03:41:29.998Z,947.81
2019-03-09T03:42:29.986Z,947.83
2019-03-09T03:43:29.972Z,947.74
2019-03-09T03:44:50.963Z,947.71
2019-03-09T03:45:29.980Z,947.72
2019-03-09T03:46:29.953Z,947.69
2019-03-09T03:47:29.941Z,947.68
2019-03-09T03:48:29.932Z,947.65
2019-03-09T03:49:29.923Z,947.71
2019-03-09T03:50:50.919Z,947.73
2019-03-09T03:51:29.904Z,947.65
2019-03-09T03:52:29.898Z,947.75
2019-03-09T03:53:29.886Z,947.70
2019-03-09T03:54:29.891Z,947.71
2019-03-09T03:55:29.868Z,947.63
2019-03-09T03:56:50.890Z,947.68
2019-03-09T03:57:30.229Z,947.66
2019-03-09T03:58:29.840Z,947.60
2019-03-09T03:59:29.835Z,947.60
2019-03-09T04:00:29.828Z,947.64
2019-03-09T04:01:29.816Z,947.61
2019-03-09T04:02:50.855Z,947.59
2019-03-09T04:03:29.814Z,947.50
2019-03-09T04:04:29.799Z,947.46
2019-03-09T04:05:29.784Z,947.48
2019-03-09T04:06:29.773Z,947.53
2019-03-09T04:07:29.770Z,947.50
2019-03-09T04:08:50.763Z,947.52
2019-03-09T04:09:29.759Z,947.59
2019-03-09T04:10:29.743Z,947.60
2019-03-09T04:11:29.727Z,947.60
2019-03-09T04:12:29.725Z,947.59
2019-03-09T04:13:29.716Z,947.63
2019-03-09T04:14:50.707Z,947.58
2019-03-09T04:15:29.695Z,947.68
2019-03-09T04:16:29.689Z,947.61
2019-03-09T04:17:29.677Z,947.63
2019-03-09T04:18:29.671Z,947.60
2019-03-09T04:19:29.661Z,947.58
2019-03-09T04:20:50.659Z,947.60
2019-03-09T04:21:29.648Z,947.67
2019-03-09T04:22:29.634Z,947.62
2019-03-09T04:23:29.625Z,947.60
2019-03-09T04:24:29.619Z,947.66
2019-03-09T04:25:29.605Z,947.56
2019-03-09T04:26:50.599Z,947.57
2019-03-09T04:27:29.584Z,947.55
2019-03-09T04:28:29.586Z,947.59
2019-03-09T04:29:29.571Z,947.60
2019-03-09T04:30:29.576Z,947.61
2019-03-09T04:31:29.559Z,947.62
2019-03-09T04:32:50.553Z,947.63
2019-03-09T04:33:29.533Z,947.62
2019-03-09T04:34:29.533Z,947.63
2019-03-09T04:35:29.519Z,947.65
2019-03-09T04:36:29.511Z,947.63
2019-03-09T04:37:29.504Z,947.66
2019-03-09T04:38:50.496Z,947.67
2019-03-09T04:39:29.491Z,947.75
2019-03-09T04:40:29.479Z,947.64
2019-03-09T04:41:29.471Z,947.66
2019-03-09T04:42:29.459Z,947.69
2019-03-09T04:43:29.447Z,947.71
2019-03-09T04:44:50.450Z,947.66
2019-03-09T04:45:29.431Z,947.64
2019-03-09T04:46:29.421Z,947.67
2019-03-09T04:47:30.222Z,947.65
2019-03-09T04:48:29.412Z,947.66
2019-03-09T04:49:29.395Z,947.70
2019-03-09T04:50:50.395Z,947.73
2019-03-09T04:51:29.382Z,947.73
2019-03-09T04:52:29.377Z,947.70
2019-03-09T04:53:29.361Z,947.72
2019-03-09T04:54:29.355Z,947.70
2019-03-09T04:55:29.345Z,947.76
2019-03-09T04:56:50.346Z,947.78
2019-03-09T04:57:29.330Z,947.77
2019-03-09T04:58:29.317Z,947.77
2019-03-09T04:59:29.316Z,947.77
2019-03-09T05:00:29.303Z,947.79
2019-03-09T05:01:29.298Z,947.76
2019-03-09T05:02:50.296Z,947.79
2019-03-09T05:03:29.267Z,947.78
2019-03-09T05:04:29.271Z,947.78
2019-03-09T05:05:29.258Z,947.77
2019-03-09T05:06:29.249Z,947.77
2019-03-09T05:07:29.246Z,947.79
2019-03-09T05:08:50.237Z,947.69
2019-03-09T05:09:29.227Z,947.74
2019-03-09T05:10:29.215Z,947.75
2019-03-09T05:11:29.222Z,947.84
2019-03-09T05:12:29.206Z,947.80
2019-03-09T05:13:29.190Z,947.79
2019-03-09T05:14:50.191Z,947.79
2019-03-09T05:15:29.172Z,947.80
2019-03-09T05:16:29.166Z,947.77
2019-03-09T05:17:29.158Z,947.77
2019-03-09T05:18:29.145Z,947.79
2019-03-09T05:19:29.140Z,947.77
2019-03-09T05:20:50.135Z,947.82
2019-03-09T05:21:29.119Z,947.82
2019-03-09T05:22:29.113Z,947.79
2019-03-09T05:23:29.100Z,947.67
2019-03-09T05:24:29.100Z,947.67
2019-03-09T05:25:29.087Z,947.66
2019-03-09T05:26:50.087Z,947.66
2019-03-09T05:27:29.076Z,947.69
2019-03-09T05:28:29.064Z,947.77
2019-03-09T05:29:29.057Z,947.69
2019-03-09T05:30:29.044Z,947.71
2019-03-09T05:31:29.040Z,947.69
2019-03-09T05:32:50.035Z,947.73
2019-03-09T05:33:29.023Z,947.78
2019-03-09T05:34:29.011Z,947.80
2019-03-09T05:35:29.001Z,947.83
2019-03-09T05:36:28.999Z,947.79
2019-03-09T05:37:29.187Z,947.82
2019-03-09T05:38:51.221Z,947.77
2019-03-09T05:39:28.967Z,947.83
2019-03-09T05:40:28.957Z,947.82
2019-03-09T05:41:28.948Z,947.81
2019-03-09T05:42:28.940Z,947.73
2019-03-09T05:43:28.938Z,947.71
2019-03-09T05:44:49.939Z,947.77
2019-03-09T05:45:28.921Z,947.72
2019-03-09T05:46:28.912Z,947.72
2019-03-09T05:47:28.906Z,947.79
2019-03-09T05:48:28.890Z,947.77
2019-03-09T05:49:28.890Z,947.78
2019-03-09T05:50:49.879Z,947.81
2019-03-09T05:51:28.876Z,947.81
2019-03-09T05:52:28.862Z,947.89
2019-03-09T05:53:28.850Z,947.89
2019-03-09T05:54:28.855Z,947.89
2019-03-09T05:55:28.832Z,947.76
2019-03-09T05:56:49.834Z,947.92
2019-03-09T05:57:28.822Z,947.94
2019-03-09T05:58:28.811Z,948.00
2019-03-09T05:59:28.800Z,947.89
2019-03-09T06:00:28.828Z,948.03
2019-03-09T06:01:28.786Z,948.06
2019-03-09T06:02:49.783Z,948.05
2019-03-09T06:03:28.769Z,948.00
2019-03-09T06:04:28.751Z,947.99
2019-03-09T06:05:28.753Z,948.08
2019-03-09T06:06:28.747Z,948.10
2019-03-09T06:07:28.736Z,948.12
2019-03-09T06:08:49.733Z,948.09
2019-03-09T06:09:28.722Z,948.14
2019-03-09T06:10:28.713Z,948.12
2019-03-09T06:11:28.701Z,948.13
2019-03-09T06:12:28.705Z,948.12
2019-03-09T06:13:28.704Z,948.16
2019-03-09T06:14:49.687Z,948.24
2019-03-09T06:15:28.675Z,948.25
2019-03-09T06:16:28.664Z,948.30
2019-03-09T06:17:28.682Z,948.33
2019-03-09T06:18:28.649Z,948.28
2019-03-09T06:19:28.663Z,948.32
2019-03-09T06:20:49.632Z,948.32
2019-03-09T06:21:28.627Z,948.22
2019-03-09T06:22:28.610Z,948.28
2019-03-09T06:23:28.600Z,948.29
2019-03-09T06:24:28.593Z,948.22
2019-03-09T06:25:28.592Z,948.10
2019-03-09T06:26:49.587Z,948.18
2019-03-09T06:27:28.573Z,948.19
2019-03-09T06:28:28.564Z,948.19
2019-03-09T06:29:28.549Z,948.23
2019-03-09T06:30:28.550Z,948.35
2019-03-09T06:31:28.546Z,948.35
2019-03-09T06:32:49.702Z,948.33
2019-03-09T06:33:28.526Z,948.44
2019-03-09T06:34:28.520Z,948.45
2019-03-09T06:35:28.515Z,948.47
2019-03-09T06:36:28.509Z,948.47
2019-03-09T06:37:28.491Z,948.51
2019-03-09T06:38:49.492Z,948.50
2019-03-09T06:39:28.488Z,948.51
2019-03-09T06:40:28.476Z,948.52
2019-03-09T06:41:28.465Z,948.59
2019-03-09T06:42:28.449Z,948.57
2019-03-09T06:43:28.443Z,948.59
2019-03-09T06:44:49.448Z,948.68
2019-03-09T06:45:28.431Z,948.68
2019-03-09T06:46:28.422Z,948.77
2019-03-09T06:47:28.426Z,948.73
2019-03-09T06:48:28.415Z,948.69
2019-03-09T06:49:28.409Z,948.70
2019-03-09T06:50:49.398Z,948.77
2019-03-09T06:51:28.407Z,948.75
2019-03-09T06:52:28.373Z,948.79
2019-03-09T06:53:28.363Z,948.84
2019-03-09T06:54:28.364Z,948.87
2019-03-09T06:55:28.359Z,948.75
2019-03-09T06:56:49.350Z,948.85
2019-03-09T06:57:28.338Z,948.82
2019-03-09T06:58:28.325Z,948.78
2019-03-09T06:59:28.332Z,948.95
2019-03-09T07:00:28.315Z,948.98
2019-03-09T07:01:28.307Z,949.03
2019-03-09T07:02:49.301Z,949.04
2019-03-09T07:03:28.291Z,949.02
2019-03-09T07:04:28.289Z,948.95
2019-03-09T07:05:28.275Z,948.99
2019-03-09T07:06:28.268Z,949.06
2019-03-09T07:07:28.262Z,949.11
2019-03-09T07:08:49.259Z,949.09
2019-03-09T07:09:28.255Z,949.08
2019-03-09T07:10:28.245Z,949.07
2019-03-09T07:11:28.232Z,949.22
2019-03-09T07:12:28.226Z,949.23
2019-03-09T07:13:28.221Z,949.31
2019-03-09T07:14:49.219Z,949.36
2019-03-09T07:15:28.200Z,949.37
2019-03-09T07:16:28.195Z,949.43
2019-03-09T07:17:28.186Z,949.38
2019-03-09T07:18:28.175Z,949.39
2019-03-09T07:19:28.173Z,949.45
2019-03-09T07:20:49.173Z,949.52
2019-03-09T07:21:28.161Z,949.39
2019-03-09T07:22:28.165Z,949.23
2019-03-09T07:23:28.147Z,949.29
2019-03-09T07:24:28.138Z,949.41
2019-03-09T07:25:28.126Z,949.48
2019-03-09T07:26:49.128Z,949.48
2019-03-09T07:27:28.109Z,949.40
2019-03-09T07:28:28.104Z,949.39
2019-03-09T07:29:28.099Z,949.40
2019-03-09T07:30:28.084Z,949.53
2019-03-09T07:31:28.088Z,949.42
2019-03-09T07:32:49.082Z,949.44
2019-03-09T07:33:28.069Z,949.46
2019-03-09T07:34:28.069Z,949.46
2019-03-09T07:35:28.052Z,949.56
2019-03-09T07:36:28.054Z,949.55
2019-03-09T07:37:28.042Z,949.56
2019-03-09T07:38:49.040Z,949.54
2019-03-09T07:39:28.029Z,949.63
2019-03-09T07:40:28.018Z,949.60
2019-03-09T07:41:28.007Z,949.58
2019-03-09T07:42:28.007Z,949.58
2019-03-09T07:43:28.000Z,949.54
2019-03-09T07:44:48.996Z,949.64
2019-03-09T07:45:28.916Z,949.55
2019-03-09T07:46:27.968Z,949.64
2019-03-09T07:47:27.968Z,949.63
2019-03-09T07:48:27.964Z,949.64
2019-03-09T07:49:27.957Z,949.72
2019-03-09T07:50:48.954Z,949.70
2019-03-09T07:51:27.945Z,949.63
2019-03-09T07:52:27.932Z,949.67
2019-03-09T07:53:27.925Z,949.68
2019-03-09T07:54:27.921Z,949.66
2019-03-09T07:55:27.914Z,949.72
2019-03-09T07:56:48.914Z,949.66
2019-03-09T07:57:27.901Z,949.71
2019-03-09T07:58:27.896Z,949.76
2019-03-09T07:59:27.889Z,949.73
2019-03-09T08:00:27.884Z,949.74
2019-03-09T08:01:27.874Z,949.76
2019-03-09T08:02:48.870Z,949.68
2019-03-09T08:03:27.883Z,949.82
2019-03-09T08:04:27.850Z,949.66
2019-03-09T08:05:27.839Z,949.71
2019-03-09T08:06:27.838Z,949.73
2019-03-09T08:07:27.817Z,949.77
2019-03-09T08:08:48.829Z,949.74
2019-03-09T08:09:27.817Z,949.75
2019-03-09T08:10:27.807Z,949.82
2019-03-09T08:11:27.803Z,949.88
2019-03-09T08:12:27.800Z,949.90
2019-03-09T08:13:27.832Z,949.84
2019-03-09T08:14:48.791Z,949.86
2019-03-09T08:15:27.776Z,949.87
2019-03-09T08:16:35.549Z,949.83
2019-03-09T08:17:27.765Z,949.94
2019-03-09T08:18:27.761Z,949.78
2019-03-09T08:19:28.467Z,949.77
2019-03-09T08:20:49.426Z,949.78
2019-03-09T08:21:27.739Z,949.76
2019-03-09T08:22:27.739Z,949.81
2019-03-09T08:23:27.726Z,949.79
2019-03-09T08:24:27.714Z,949.83
2019-03-09T08:25:27.704Z,949.88
2019-03-09T08:26:48.710Z,949.82
2019-03-09T08:27:27.715Z,949.80
2019-03-09T08:28:27.689Z,949.80
2019-03-09T08:29:27.690Z,949.86
2019-03-09T08:30:27.676Z,949.83
2019-03-09T08:31:27.677Z,949.81
2019-03-09T08:32:48.673Z,949.78
2019-03-09T08:33:27.670Z,949.75
2019-03-09T08:34:27.662Z,949.68
2019-03-09T08:35:27.656Z,949.80
2019-03-09T08:36:27.644Z,949.79
2019-03-09T08:37:27.642Z,949.78
2019-03-09T08:38:48.658Z,949.82
2019-03-09T08:39:27.622Z,949.85
2019-03-09T08:40:27.625Z,949.85
2019-03-09T08:41:27.616Z,949.83
2019-03-09T08:42:27.606Z,949.74
2019-03-09T08:43:27.622Z,949.67
2019-03-09T08:44:48.587Z,949.68
2019-03-09T08:45:27.602Z,949.72
2019-03-09T08:46:27.612Z,949.66
2019-03-09T08:47:27.580Z,949.68
2019-03-09T08:48:27.675Z,949.76
2019-03-09T08:49:27.581Z,949.77
2019-03-09T08:50:48.581Z,949.65
2019-03-09T08:51:27.580Z,949.82
2019-03-09T08:52:27.565Z,949.85
2019-03-09T08:53:27.541Z,949.84
2019-03-09T08:54:27.536Z,949.75
2019-03-09T08:55:27.568Z,949.91
2019-03-09T08:56:48.541Z,949.80
2019-03-09T08:57:27.510Z,949.84
2019-03-09T08:58:27.508Z,949.77
2019-03-09T08:59:27.513Z,949.80
2019-03-09T09:00:29.900Z,949.70
2019-03-09T09:01:27.505Z,949.73
2019-03-09T09:02:48.489Z,949.80
2019-03-09T09:03:27.479Z,949.68
2019-03-09T09:04:27.473Z,949.70
2019-03-09T09:05:27.474Z,949.74
2019-03-09T09:06:27.484Z,949.74
2019-03-09T09:07:27.464Z,949.70
2019-03-09T09:08:48.462Z,949.50
2019-03-09T09:09:27.441Z,949.42
2019-03-09T09:10:27.439Z,949.49
2019-03-09T09:11:27.443Z,949.60
2019-03-09T09:12:27.434Z,949.59
2019-03-09T09:13:27.425Z,949.48
2019-03-09T09:14:48.427Z,949.42
2019-03-09T09:15:27.413Z,949.35
2019-03-09T09:16:27.410Z,949.58
2019-03-09T09:17:27.409Z,949.53
2019-03-09T09:18:27.398Z,949.56
2019-03-09T09:19:27.399Z,949.55
2019-03-09T09:20:48.397Z,949.61
2019-03-09T09:21:27.380Z,949.68
2019-03-09T09:22:27.381Z,949.62
2019-03-09T09:23:27.378Z,949.52
2019-03-09T09:24:27.371Z,949.52
2019-03-09T09:25:27.368Z,949.62
2019-03-09T09:26:48.373Z,949.62
2019-03-09T09:27:27.353Z,949.68
2019-03-09T09:28:27.353Z,949.62
2019-03-09T09:29:27.347Z,949.57
2019-03-09T09:30:27.341Z,949.54
2019-03-09T09:31:27.334Z,949.64
2019-03-09T09:32:48.333Z,949.59
2019-03-09T09:33:27.325Z,949.54
2019-03-09T09:34:27.320Z,949.53
2019-03-09T09:35:27.318Z,949.59
2019-03-09T09:36:27.314Z,949.54
2019-03-09T09:37:27.314Z,949.51
2019-03-09T09:38:48.313Z,949.53
2019-03-09T09:39:27.296Z,949.53
2019-03-09T09:40:27.296Z,949.52
2019-03-09T09:41:27.287Z,949.50
2019-03-09T09:42:27.278Z,949.46
2019-03-09T09:43:27.274Z,949.50
2019-03-09T09:44:48.282Z,949.47
2019-03-09T09:45:27.265Z,949.60
2019-03-09T09:46:27.278Z,949.61
2019-03-09T09:47:27.268Z,949.34
2019-03-09T09:48:27.498Z,949.39
2019-03-09T09:49:27.254Z,949.26
2019-03-09T09:50:48.252Z,949.35
2019-03-09T09:51:27.243Z,949.28
2019-03-09T09:52:27.235Z,949.22
2019-03-09T09:53:27.230Z,949.14
2019-03-09T09:54:27.232Z,949.04
2019-03-09T09:55:27.222Z,949.15
2019-03-09T09:56:48.233Z,949.15
2019-03-09T09:57:27.216Z,949.10
2019-03-09T09:58:27.211Z,948.99
2019-03-09T09:59:27.213Z,949.09
2019-03-09T10:00:27.203Z,949.06
2019-03-09T10:01:27.205Z,949.02
2019-03-09T10:02:48.203Z,948.93
2019-03-09T10:03:27.190Z,949.15
2019-03-09T10:04:27.195Z,948.91
2019-03-09T10:05:27.185Z,949.14
2019-03-09T10:06:27.179Z,949.03
2019-03-09T10:07:27.181Z,948.89
2019-03-09T10:08:48.178Z,949.08
2019-03-09T10:09:27.169Z,949.07
2019-03-09T10:10:27.169Z,949.04
2019-03-09T10:11:27.167Z,949.03
2019-03-09T10:12:27.154Z,949.07
2019-03-09T10:13:27.149Z,948.82
2019-03-09T10:14:48.158Z,948.88
2019-03-09T10:15:27.151Z,948.73
2019-03-09T10:16:27.141Z,948.85
2019-03-09T10:17:27.134Z,948.96
2019-03-09T10:18:27.123Z,948.95
2019-03-09T10:19:27.135Z,948.90
2019-03-09T10:20:48.133Z,948.86
2019-03-09T10:21:27.130Z,948.77
2019-03-09T10:22:27.120Z,948.93
2019-03-09T10:23:27.120Z,948.98
2019-03-09T10:24:27.110Z,948.78
2019-03-09T10:25:27.103Z,948.83
2019-03-09T10:26:48.110Z,948.86
2019-03-09T10:27:27.104Z,948.89
2019-03-09T10:28:27.101Z,948.98
2019-03-09T10:29:27.096Z,948.90
2019-03-09T10:30:27.082Z,948.92
2019-03-09T10:31:27.088Z,948.94
2019-03-09T10:32:48.086Z,948.84
2019-03-09T10:33:27.080Z,948.88
2019-03-09T10:34:27.081Z,948.92
2019-03-09T10:35:27.066Z,948.91
2019-03-09T10:36:27.074Z,948.81
2019-03-09T10:37:27.062Z,948.84
2019-03-09T10:38:49.264Z,948.74
2019-03-09T10:39:27.058Z,948.84
2019-03-09T10:40:27.051Z,948.76
2019-03-09T10:41:27.059Z,948.77
2019-03-09T10:42:27.056Z,948.82
2019-03-09T10:43:27.095Z,948.90
2019-03-09T10:44:49.783Z,948.84
2019-03-09T10:45:27.041Z,948.87
2019-03-09T10:46:27.036Z,948.86
2019-03-09T10:47:27.032Z,948.65
2019-03-09T10:48:27.027Z,948.71
2019-03-09T10:49:27.021Z,948.56
2019-03-09T10:50:48.027Z,948.77
2019-03-09T10:51:27.019Z,948.78
2019-03-09T10:52:27.014Z,948.72
2019-03-09T10:53:27.012Z,948.69
2019-03-09T10:54:35.718Z,948.51
2019-03-09T10:55:27.017Z,948.42
2019-03-09T10:56:48.013Z,948.52
2019-03-09T10:57:26.995Z,948.55
2019-03-09T10:58:27.008Z,948.59
2019-03-09T10:59:26.997Z,948.68
2019-03-09T11:00:26.997Z,948.71
2019-03-09T11:01:26.996Z,948.65
2019-03-09T11:02:47.988Z,948.62
2019-03-09T11:03:26.994Z,948.68
2019-03-09T11:04:27.816Z,948.67
2019-03-09T11:05:27.026Z,948.57
2019-03-09T11:06:26.987Z,948.58
2019-03-09T11:07:26.981Z,948.68
2019-03-09T11:08:47.986Z,948.50
2019-03-09T11:09:26.984Z,948.53
2019-03-09T11:10:26.970Z,948.49
2019-03-09T11:11:26.973Z,948.64
2019-03-09T11:12:26.968Z,948.61
2019-03-09T11:13:26.969Z,948.60
2019-03-09T11:14:48.058Z,948.70
2019-03-09T11:15:26.965Z,948.60
2019-03-09T11:16:26.963Z,948.69
2019-03-09T11:17:26.961Z,948.63
2019-03-09T11:18:26.953Z,948.72
2019-03-09T11:19:26.947Z,948.76
2019-03-09T11:20:47.962Z,948.74
2019-03-09T11:21:26.960Z,948.77
2019-03-09T11:22:26.944Z,948.77
2019-03-09T11:23:26.983Z,948.76
2019-03-09T11:24:26.943Z,948.76
2019-03-09T11:25:26.936Z,948.70
2019-03-09T11:26:47.946Z,948.69
2019-03-09T11:27:26.938Z,948.72
2019-03-09T11:28:26.936Z,948.63
2019-03-09T11:29:28.273Z,948.69
2019-03-09T11:30:26.934Z,948.62
2019-03-09T11:31:26.938Z,948.58
2019-03-09T11:32:47.935Z,948.60
2019-03-09T11:33:26.928Z,948.67
2019-03-09T11:34:26.927Z,948.56
2019-03-09T11:35:26.926Z,948.45
2019-03-09T11:36:26.921Z,948.51
2019-03-09T11:37:26.925Z,948.40
2019-03-09T11:38:47.937Z,948.44
2019-03-09T11:39:26.916Z,948.43
2019-03-09T11:40:26.924Z,948.37
2019-03-09T11:41:26.918Z,948.45
2019-03-09T11:42:26.912Z,948.39
2019-03-09T11:43:26.911Z,948.46
2019-03-09T11:44:47.919Z,948.43
2019-03-09T11:45:26.915Z,948.24
2019-03-09T11:46:26.948Z,948.34
2019-03-09T11:47:26.905Z,948.41
2019-03-09T11:48:26.905Z,948.09
2019-03-09T11:49:26.896Z,948.36
2019-03-09T11:50:47.901Z,948.26
2019-03-09T11:51:26.894Z,948.24
2019-03-09T11:52:29.122Z,948.26
2019-03-09T11:53:26.886Z,948.14
2019-03-09T11:54:26.884Z,948.17
2019-03-09T11:55:26.878Z,948.25
2019-03-09T11:56:47.891Z,948.19
2019-03-09T11:57:26.884Z,948.24
2019-03-09T11:58:26.877Z,948.21
2019-03-09T11:59:26.877Z,948.25
2019-03-09T12:00:26.885Z,948.19
2019-03-09T12:01:26.881Z,948.16
2019-03-09T12:02:47.881Z,948.07
2019-03-09T12:03:26.868Z,948.09
2019-03-09T12:04:26.863Z,948.20
2019-03-09T12:05:26.865Z,948.19
2019-03-09T12:06:26.851Z,948.01
2019-03-09T12:07:26.868Z,948.11
2019-03-09T12:08:47.863Z,948.12
2019-03-09T12:09:26.853Z,947.97
2019-03-09T12:10:26.861Z,948.01
2019-03-09T12:11:26.854Z,948.03
2019-03-09T12:12:26.847Z,947.95
2019-03-09T12:13:26.843Z,948.03
2019-03-09T12:14:47.845Z,947.83
2019-03-09T12:15:26.835Z,947.94
2019-03-09T12:16:26.848Z,947.81
2019-03-09T12:17:26.836Z,947.92
2019-03-09T12:18:26.837Z,947.90
2019-03-09T12:19:27.679Z,947.92
2019-03-09T12:20:47.837Z,947.89
2019-03-09T12:21:26.817Z,947.94
2019-03-09T12:22:26.821Z,947.83
2019-03-09T12:23:26.819Z,947.77
2019-03-09T12:24:26.817Z,947.88
2019-03-09T12:25:26.813Z,947.86
2019-03-09T12:26:47.815Z,947.86
2019-03-09T12:27:26.803Z,947.68
2019-03-09T12:28:26.802Z,947.77